Time;durP1;ratioP1;P1;durP2;ratioP2;P2;SDS_P1;SDS_P2;PMS_P1;PMS_P2;Temp;Humidity;BMP_temperature;BMP_pressure;BME280_temperature;BME280_humidity;BME280_pressure;Samples;Min_cycle;Max_cycle;Signal;HPM_P1;HPM_P2
2023/12/28 00:00:34;;;;;;;6.20;2.25;;;8.80;99.90;;;;;;5019760;28;20037;-85
2023/12/28 00:03:00;;;;;;;7.45;2.50;;;8.80;99.90;;;;;;4981710;28;20064;-85
2023/12/28 00:05:25;;;;;;;7.50;2.53;;;8.80;99.90;;;;;;4976461;28;20046;-84
2023/12/28 00:07:57;;;;;;;6.65;2.20;;;8.70;99.90;;;;;;4991451;28;20045;-83
2023/12/28 00:10:24;;;;;;;6.15;2.40;;;9.00;99.90;;;;;;5019592;28;20044;-84
2023/12/28 00:12:50;;;;;;;6.68;2.45;;;8.80;99.90;;;;;;5016201;28;20046;-84
2023/12/28 00:15:17;;;;;;;7.95;2.40;;;8.90;99.90;;;;;;4985782;28;20042;-84
2023/12/28 00:17:43;;;;;;;7.55;2.35;;;8.90;99.90;;;;;;4983801;28;20060;-84
2023/12/28 00:20:09;;;;;;;7.78;2.80;;;8.80;99.90;;;;;;4986656;28;20041;-84
2023/12/28 00:22:37;;;;;;;6.20;2.30;;;9.00;99.90;;;;;;5037053;28;20573;-83
2023/12/28 00:25:04;;;;;;;6.80;2.60;;;8.90;99.90;;;;;;5016413;28;20058;-84
2023/12/28 00:27:29;;;;;;;6.57;2.53;;;8.90;99.90;;;;;;4968349;28;20038;-84
2023/12/28 00:29:55;;;;;;;8.35;2.80;;;8.90;99.90;;;;;;4993564;28;20058;-84
2023/12/28 00:32:21;;;;;;;6.60;2.45;;;8.90;99.90;;;;;;4986260;28;20037;-84
2023/12/28 00:34:46;;;;;;;7.20;2.40;;;9.00;99.90;;;;;;5003148;28;20125;-84
2023/12/28 00:37:12;;;;;;;7.75;2.88;;;9.10;99.90;;;;;;4970053;28;20034;-84
2023/12/28 00:39:39;;;;;;;7.93;2.70;;;9.00;99.90;;;;;;4972407;28;20037;-84
2023/12/28 00:42:05;;;;;;;6.75;2.60;;;9.00;99.90;;;;;;4978725;28;20471;-83
2023/12/28 00:44:30;;;;;;;8.10;2.83;;;9.10;99.90;;;;;;4987031;28;20038;-84
2023/12/28 00:46:56;;;;;;;7.97;2.70;;;8.90;99.90;;;;;;4960482;28;20113;-84
2023/12/28 00:49:22;;;;;;;7.13;2.40;;;9.00;99.90;;;;;;4954484;28;20041;-84
2023/12/28 00:51:47;;;;;;;7.57;2.50;;;9.00;99.90;;;;;;4986430;28;20042;-84
2023/12/28 00:54:13;;;;;;;7.22;2.67;;;9.00;99.90;;;;;;4983634;28;20164;-84
2023/12/28 00:56:39;;;;;;;7.38;2.70;;;9.00;99.90;;;;;;4968171;28;20065;-85
2023/12/28 00:59:04;;;;;;;8.02;2.60;;;9.00;99.90;;;;;;4963694;28;20042;-84
2023/12/28 01:01:32;;;;;;;7.85;2.55;;;8.90;99.90;;;;;;4971441;28;20034;-84
2023/12/28 01:03:58;;;;;;;8.77;2.88;;;8.90;99.90;;;;;;4969911;28;20049;-84
2023/12/28 01:06:28;;;;;;;6.60;2.40;;;9.00;99.90;;;;;;4984736;28;20042;-84
2023/12/28 01:08:54;;;;;;;7.20;2.72;;;9.00;99.90;;;;;;4983539;28;20042;-85
2023/12/28 01:11:20;;;;;;;7.70;2.50;;;8.90;99.90;;;;;;4972199;28;20038;-84
2023/12/28 01:13:46;;;;;;;7.20;2.30;;;9.00;99.90;;;;;;5002263;28;20069;-85
2023/12/28 01:16:15;;;;;;;9.40;3.10;;;8.90;99.90;;;;;;4986408;28;20034;-84
2023/12/28 01:18:40;;;;;;;8.32;2.90;;;9.00;99.90;;;;;;5002205;28;20034;-84
2023/12/28 01:21:06;;;;;;;7.13;2.30;;;8.90;99.90;;;;;;4980803;28;20052;-84
2023/12/28 01:23:32;;;;;;;7.22;2.63;;;9.40;99.90;;;;;;5016258;28;20396;-84
2023/12/28 01:26:01;;;;;;;8.27;2.53;;;8.90;99.90;;;;;;4988146;28;20038;-84
2023/12/28 01:28:28;;;;;;;6.13;2.35;;;8.80;99.90;;;;;;4967198;28;20041;-84
2023/12/28 01:30:53;;;;;;;10.52;2.85;;;9.20;99.90;;;;;;4966344;28;20402;-84
2023/12/28 01:33:19;;;;;;;7.63;2.58;;;9.10;99.90;;;;;;4964948;28;20541;-84
2023/12/28 01:35:45;;;;;;;8.80;2.50;;;9.00;99.90;;;;;;4984239;28;20046;-84
2023/12/28 01:38:10;;;;;;;9.88;2.85;;;8.90;99.90;;;;;;4971582;28;20503;-84
2023/12/28 01:40:36;;;;;;;8.00;2.60;;;8.80;99.90;;;;;;4971710;28;20821;-84
2023/12/28 01:43:02;;;;;;;9.18;2.45;;;8.90;99.90;;;;;;4980985;28;20060;-84
2023/12/28 01:45:27;;;;;;;8.13;2.70;;;9.00;99.90;;;;;;4971332;28;20064;-84
2023/12/28 01:47:57;;;;;;;8.20;2.63;;;9.00;99.90;;;;;;4972384;28;20039;-85
2023/12/28 01:50:24;;;;;;;10.13;2.72;;;8.80;99.90;;;;;;5005969;28;20045;-84
2023/12/28 01:52:51;;;;;;;10.25;2.80;;;8.80;99.90;;;;;;5002983;28;20041;-84
2023/12/28 01:55:17;;;;;;;7.38;2.63;;;9.00;99.90;;;;;;4989798;28;20088;-84
2023/12/28 01:57:43;;;;;;;8.27;2.67;;;9.00;99.90;;;;;;4988202;28;20120;-84
2023/12/28 02:00:10;;;;;;;10.38;2.63;;;8.90;99.90;;;;;;4972380;28;20189;-84
2023/12/28 02:02:36;;;;;;;9.38;2.60;;;9.00;99.90;;;;;;4953716;28;20041;-84
2023/12/28 02:05:02;;;;;;;8.13;2.22;;;8.80;99.90;;;;;;4984124;28;20030;-84
2023/12/28 02:07:29;;;;;;;8.18;2.55;;;8.90;99.90;;;;;;4967187;28;20034;-84
2023/12/28 02:09:55;;;;;;;7.57;2.35;;;9.00;99.90;;;;;;4980435;28;20042;-84
2023/12/28 02:12:21;;;;;;;8.88;2.33;;;8.80;99.90;;;;;;4990223;28;20030;-83
2023/12/28 02:14:47;;;;;;;8.35;2.50;;;8.80;99.90;;;;;;4987348;28;20046;-84
2023/12/28 02:17:27;;;;;;;10.25;2.60;;;9.00;99.90;;;;;;5005200;28;20410;-84
2023/12/28 02:19:55;;;;;;;8.88;2.40;;;8.90;99.90;;;;;;5003280;28;20041;-84
2023/12/28 02:22:24;;;;;;;8.55;2.65;;;9.00;99.90;;;;;;4972312;28;20084;-84
2023/12/28 02:25:02;;;;;;;8.20;2.78;;;9.00;99.90;;;;;;5006042;28;20092;-84
2023/12/28 02:27:28;;;;;;;8.32;2.40;;;9.00;99.90;;;;;;5006271;28;20565;-84
2023/12/28 02:29:55;;;;;;;10.32;2.65;;;8.90;99.90;;;;;;5006065;28;20042;-85
2023/12/28 02:32:43;;;;;;;9.35;2.58;;;9.00;99.90;;;;;;4971849;28;20043;-84
2023/12/28 02:35:27;;;;;;;9.55;2.70;;;8.90;99.90;;;;;;4971409;28;20037;-84
2023/12/28 02:37:55;;;;;;;9.13;2.78;;;9.10;99.90;;;;;;5002864;28;20034;-84
2023/12/28 02:40:23;;;;;;;9.85;2.33;;;8.90;99.90;;;;;;4976629;28;20026;-84
2023/12/28 02:42:49;;;;;;;10.80;2.47;;;9.00;99.90;;;;;;4980467;28;20045;-84
2023/12/28 02:45:15;;;;;;;7.93;2.50;;;8.90;99.90;;;;;;4990043;28;20080;-84
2023/12/28 02:47:40;;;;;;;10.05;2.40;;;8.90;99.90;;;;;;4962764;28;20442;-85
2023/12/28 02:50:07;;;;;;;8.20;2.50;;;9.00;99.90;;;;;;4963755;28;20053;-84
2023/12/28 02:52:32;;;;;;;10.02;2.50;;;9.10;99.90;;;;;;4970151;28;20045;-85
2023/12/28 02:54:58;;;;;;;8.15;2.40;;;9.00;99.90;;;;;;4972662;28;20053;-85
2023/12/28 02:57:24;;;;;;;10.50;2.58;;;9.30;99.90;;;;;;4985110;28;20418;-84
2023/12/28 02:59:49;;;;;;;9.77;2.47;;;9.00;99.90;;;;;;4961984;28;20045;-84
2023/12/28 03:02:15;;;;;;;11.05;3.00;;;9.30;99.90;;;;;;4973235;28;20034;-85
2023/12/28 03:04:41;;;;;;;10.68;2.55;;;9.20;99.90;;;;;;5002188;28;20172;-84
2023/12/28 03:07:08;;;;;;;8.50;2.70;;;9.10;99.90;;;;;;4989137;28;20038;-85
2023/12/28 03:09:34;;;;;;;9.40;2.55;;;9.40;99.90;;;;;;4988135;28;20050;-84
2023/12/28 03:12:00;;;;;;;12.75;2.60;;;9.20;99.90;;;;;;4989060;28;20045;-84
2023/12/28 03:14:26;;;;;;;8.95;2.47;;;9.40;99.90;;;;;;4987184;28;20058;-84
2023/12/28 03:16:52;;;;;;;10.25;2.70;;;9.50;99.90;;;;;;5004282;28;20062;-84
2023/12/28 03:19:17;;;;;;;11.13;2.83;;;9.40;99.90;;;;;;4988060;28;20045;-84
2023/12/28 03:21:43;;;;;;;10.18;3.45;;;9.40;99.90;;;;;;4963064;28;20042;-84
2023/12/28 03:24:09;;;;;;;10.20;2.30;;;9.50;99.90;;;;;;4988096;28;20038;-84
2023/12/28 03:26:38;;;;;;;8.82;2.65;;;9.50;99.90;;;;;;4964528;28;20065;-84
2023/12/28 03:29:06;;;;;;;8.52;2.25;;;9.40;99.90;;;;;;4986994;28;20382;-84
2023/12/28 03:31:31;;;;;;;7.95;2.13;;;9.40;99.90;;;;;;4988996;28;20038;-84
2023/12/28 03:33:57;;;;;;;7.45;2.42;;;9.80;99.90;;;;;;4969559;28;20232;-84
2023/12/28 03:36:23;;;;;;;9.82;2.67;;;9.60;99.90;;;;;;4969796;28;20034;-84
2023/12/28 03:38:49;;;;;;;8.77;2.35;;;9.60;99.90;;;;;;4952004;28;20042;-84
2023/12/28 03:41:21;;;;;;;10.05;2.28;;;9.60;99.90;;;;;;4967362;28;20041;-84
2023/12/28 03:43:47;;;;;;;8.97;2.50;;;9.60;99.90;;;;;;4970340;28;20042;-85
2023/12/28 03:46:13;;;;;;;8.25;2.17;;;9.60;99.90;;;;;;4971470;28;20049;-84
2023/12/28 03:48:39;;;;;;;9.38;2.63;;;9.80;99.90;;;;;;5002451;28;20038;-84
2023/12/28 03:51:05;;;;;;;11.02;2.47;;;9.50;99.90;;;;;;4970649;28;20167;-85
2023/12/28 03:53:31;;;;;;;8.68;2.20;;;9.70;99.90;;;;;;4987063;28;20399;-84
2023/12/28 03:55:58;;;;;;;7.95;2.30;;;9.70;99.90;;;;;;4980893;28;20034;-85
2023/12/28 03:58:24;;;;;;;12.95;2.80;;;9.50;99.90;;;;;;4978682;28;20030;-84
2023/12/28 04:00:50;;;;;;;9.20;2.50;;;9.50;99.90;;;;;;5002832;28;20068;-84
2023/12/28 04:03:15;;;;;;;7.88;2.33;;;9.60;99.90;;;;;;4966927;28;20095;-84
2023/12/28 04:05:43;;;;;;;13.57;2.90;;;9.70;99.90;;;;;;4986440;28;20499;-84
2023/12/28 04:08:09;;;;;;;11.10;2.40;;;9.60;99.90;;;;;;4987578;28;20513;-84
2023/12/28 04:10:36;;;;;;;8.38;2.10;;;9.60;99.90;;;;;;5003729;28;20046;-84
2023/12/28 04:13:02;;;;;;;9.93;2.45;;;9.70;99.90;;;;;;4969723;28;20054;-84
2023/12/28 04:15:29;;;;;;;7.95;2.33;;;9.80;99.90;;;;;;4976445;28;20038;-84
2023/12/28 04:17:55;;;;;;;8.10;2.40;;;9.60;99.90;;;;;;4980403;28;20046;-84
2023/12/28 04:20:21;;;;;;;9.20;2.72;;;9.80;99.90;;;;;;5004030;28;20041;-84
2023/12/28 04:22:47;;;;;;;11.55;2.10;;;9.80;99.90;;;;;;4970759;28;20557;-84
2023/12/28 04:25:13;;;;;;;8.32;2.60;;;9.70;99.90;;;;;;4988386;28;20048;-84
2023/12/28 04:27:39;;;;;;;9.20;2.30;;;9.80;99.90;;;;;;5002698;28;20043;-84
2023/12/28 04:30:05;;;;;;;10.07;2.30;;;9.80;99.90;;;;;;4964853;28;20046;-84
2023/12/28 04:32:32;;;;;;;10.77;2.50;;;9.80;99.90;;;;;;4971045;28;20038;-84
2023/12/28 04:34:58;;;;;;;9.10;2.40;;;9.80;99.90;;;;;;4974173;28;20048;-84
2023/12/28 04:37:26;;;;;;;10.63;2.60;;;9.90;99.90;;;;;;4964559;28;20042;-84
2023/12/28 04:39:52;;;;;;;9.57;2.70;;;9.90;99.90;;;;;;5002987;28;20042;-84
2023/12/28 04:42:18;;;;;;;10.13;2.58;;;9.90;99.90;;;;;;4946375;28;20034;-85
2023/12/28 04:44:44;;;;;;;9.55;2.53;;;9.80;99.90;;;;;;4964120;28;20038;-84
2023/12/28 04:47:10;;;;;;;9.50;2.70;;;9.80;99.90;;;;;;4986328;28;20133;-84
2023/12/28 04:49:35;;;;;;;8.75;2.42;;;10.00;99.90;;;;;;4985319;28;20695;-85
2023/12/28 04:52:01;;;;;;;8.82;2.30;;;9.90;99.90;;;;;;4973658;28;20591;-85
2023/12/28 04:54:27;;;;;;;10.25;2.50;;;9.90;99.90;;;;;;4957562;28;20038;-85
2023/12/28 04:56:53;;;;;;;10.20;2.50;;;10.00;99.90;;;;;;4959696;28;20033;-85
2023/12/28 04:59:19;;;;;;;10.55;2.53;;;10.20;99.90;;;;;;4989840;28;20069;-84
2023/12/28 05:01:44;;;;;;;7.57;2.10;;;9.90;99.90;;;;;;4990261;28;20037;-84
2023/12/28 05:04:11;;;;;;;8.68;2.30;;;10.60;99.90;;;;;;4986039;28;20145;-84
2023/12/28 05:06:37;;;;;;;9.32;2.30;;;10.00;99.90;;;;;;4974644;28;20036;-84
2023/12/28 05:09:03;;;;;;;8.23;2.30;;;11.10;99.90;;;;;;5017790;28;20400;-84
2023/12/28 05:11:29;;;;;;;9.82;2.28;;;10.10;99.90;;;;;;4966555;28;20090;-84
2023/12/28 05:13:55;;;;;;;10.73;2.75;;;10.10;99.90;;;;;;4990292;28;20082;-84
2023/12/28 05:16:21;;;;;;;11.05;2.92;;;10.10;99.90;;;;;;4981656;28;20109;-84
2023/12/28 05:18:47;;;;;;;9.68;2.58;;;10.10;99.90;;;;;;4966704;28;20134;-84
2023/12/28 05:21:13;;;;;;;9.57;2.47;;;10.00;99.90;;;;;;4981867;28;20085;-85
2023/12/28 05:23:39;;;;;;;12.40;2.58;;;10.10;99.90;;;;;;4986853;28;20050;-84
2023/12/28 05:26:05;;;;;;;9.05;2.28;;;10.00;99.90;;;;;;4974362;28;20108;-85
2023/12/28 05:28:31;;;;;;;9.23;2.33;;;10.00;99.90;;;;;;5005882;28;20099;-84
2023/12/28 05:30:58;;;;;;;9.02;2.22;;;10.10;99.90;;;;;;4957866;28;20038;-85
2023/12/28 05:33:25;;;;;;;10.05;2.22;;;10.10;99.90;;;;;;5004798;28;20042;-84
2023/12/28 05:35:51;;;;;;;11.00;2.55;;;10.20;99.90;;;;;;4972971;28;20665;-84
2023/12/28 05:38:17;;;;;;;12.75;2.63;;;10.10;99.90;;;;;;4990896;28;20030;-84
2023/12/28 05:40:44;;;;;;;10.30;3.22;;;10.00;99.90;;;;;;4990412;28;20049;-84
2023/12/28 05:43:10;;;;;;;10.23;2.25;;;10.10;99.90;;;;;;4971579;28;20491;-85
2023/12/28 05:45:36;;;;;;;12.20;2.88;;;10.10;99.90;;;;;;5005649;28;20041;-84
2023/12/28 05:48:02;;;;;;;11.48;2.53;;;10.10;99.90;;;;;;5006315;28;20034;-85
2023/12/28 05:50:28;;;;;;;9.52;2.67;;;10.10;99.90;;;;;;4987483;28;20041;-84
2023/12/28 05:52:54;;;;;;;10.02;2.88;;;10.00;99.90;;;;;;5002529;28;20223;-84
2023/12/28 05:55:21;;;;;;;10.27;2.60;;;10.10;99.90;;;;;;4973208;28;20066;-85
2023/12/28 05:57:47;;;;;;;13.10;2.47;;;10.10;99.90;;;;;;5006531;28;20475;-84
2023/12/28 06:00:14;;;;;;;11.05;2.67;;;10.10;99.90;;;;;;4976524;28;20048;-84
2023/12/28 06:02:41;;;;;;;10.35;2.85;;;10.10;99.90;;;;;;4977788;28;20042;-84
2023/12/28 06:05:07;;;;;;;10.57;2.90;;;10.10;99.90;;;;;;5018447;28;20046;-84
2023/12/28 06:07:33;;;;;;;10.55;2.53;;;10.10;99.90;;;;;;4988041;28;20033;-85
2023/12/28 06:09:59;;;;;;;10.82;2.85;;;10.10;99.90;;;;;;4974312;28;20061;-85
2023/12/28 06:12:25;;;;;;;11.75;2.42;;;10.10;99.90;;;;;;5005136;28;20046;-85
2023/12/28 06:14:50;;;;;;;10.43;2.75;;;10.10;99.90;;;;;;4960537;28;20508;-84
2023/12/28 06:17:18;;;;;;;10.68;2.40;;;10.10;99.90;;;;;;4968982;28;20499;-84
2023/12/28 06:19:44;;;;;;;12.48;2.50;;;10.30;99.90;;;;;;4964697;28;20087;-83
2023/12/28 06:22:09;;;;;;;9.35;2.65;;;10.00;99.90;;;;;;4985658;28;20034;-83
2023/12/28 06:24:39;;;;;;;12.45;2.83;;;10.10;99.90;;;;;;4977523;28;20267;-84
2023/12/28 06:27:05;;;;;;;9.75;2.50;;;;;;;;;;4993740;28;20042;-84
2023/12/28 06:29:30;;;;;;;10.40;2.70;;;10.10;99.90;;;;;;4982143;28;20034;-84
2023/12/28 06:31:56;;;;;;;12.02;2.92;;;10.20;99.90;;;;;;4970486;28;20100;-84
2023/12/28 06:34:22;;;;;;;9.30;2.20;;;10.10;99.90;;;;;;5005675;28;20041;-84
2023/12/28 06:36:47;;;;;;;10.25;2.67;;;10.10;99.90;;;;;;4967036;28;20052;-84
2023/12/28 06:39:13;;;;;;;10.98;2.30;;;10.10;99.90;;;;;;4997718;28;20034;-84
2023/12/28 06:41:39;;;;;;;9.35;2.35;;;10.20;99.90;;;;;;4983367;28;20121;-84
2023/12/28 06:44:05;;;;;;;9.55;2.78;;;10.10;99.90;;;;;;4968649;28;20691;-83
2023/12/28 06:46:30;;;;;;;10.52;2.42;;;10.10;99.90;;;;;;4992645;28;20044;-84
2023/12/28 06:48:58;;;;;;;10.85;2.78;;;10.10;99.90;;;;;;5002499;28;20503;-83
2023/12/28 06:51:25;;;;;;;10.18;2.95;;;10.20;99.90;;;;;;5002697;28;20038;-84
2023/12/28 06:53:51;;;;;;;10.73;2.72;;;10.10;99.90;;;;;;4984849;28;20492;-84
2023/12/28 06:56:17;;;;;;;11.55;2.70;;;10.20;99.90;;;;;;4969467;28;20049;-84
2023/12/28 06:58:43;;;;;;;11.77;2.70;;;10.20;99.90;;;;;;4974725;28;20041;-84
2023/12/28 07:01:08;;;;;;;13.07;2.85;;;10.20;99.90;;;;;;4970276;28;20038;-84
2023/12/28 07:03:34;;;;;;;10.52;2.53;;;10.10;99.90;;;;;;4985200;28;20427;-83
2023/12/28 07:06:00;;;;;;;11.90;3.10;;;10.10;99.90;;;;;;4962500;28;20139;-84
2023/12/28 07:08:25;;;;;;;10.57;2.35;;;10.10;99.90;;;;;;4976289;28;20401;-84
2023/12/28 07:10:51;;;;;;;10.13;2.75;;;10.10;99.90;;;;;;4984652;28;20052;-84
2023/12/28 07:13:17;;;;;;;10.60;2.15;;;10.10;99.90;;;;;;4953444;28;20054;-84
2023/12/28 07:15:43;;;;;;;11.90;2.60;;;10.20;99.90;;;;;;4987351;28;20068;-84
2023/12/28 07:18:08;;;;;;;11.57;2.58;;;10.20;99.90;;;;;;5008888;28;20042;-84
2023/12/28 07:20:34;;;;;;;12.02;2.47;;;10.20;99.90;;;;;;4973344;28;20399;-83
2023/12/28 07:23:00;;;;;;;11.98;2.90;;;10.10;99.90;;;;;;4959568;28;20069;-84
2023/12/28 07:25:25;;;;;;;12.30;2.53;;;10.20;99.90;;;;;;4975816;28;20038;-83
2023/12/28 07:27:51;;;;;;;9.65;2.58;;;10.20;99.90;;;;;;4992193;28;20115;-83
2023/12/28 07:30:17;;;;;;;13.05;2.80;;;10.30;99.90;;;;;;4992792;28;20045;-83
2023/12/28 07:32:45;;;;;;;11.10;2.85;;;10.20;99.90;;;;;;4991196;28;20334;-83
2023/12/28 07:35:11;;;;;;;14.00;3.08;;;10.20;99.90;;;;;;5008941;28;20042;-83
2023/12/28 07:37:36;;;;;;;13.50;2.70;;;10.20;99.90;;;;;;4992349;28;20044;-83
2023/12/28 07:40:03;;;;;;;12.63;2.80;;;10.20;99.90;;;;;;4992939;28;20510;-84
2023/12/28 07:42:29;;;;;;;10.45;2.75;;;10.20;99.90;;;;;;4991303;28;20044;-83
2023/12/28 07:44:55;;;;;;;12.05;2.95;;;10.10;99.90;;;;;;5005696;28;20046;-83
2023/12/28 07:47:20;;;;;;;12.52;3.40;;;10.20;99.90;;;;;;4977689;28;20065;-83
2023/12/28 07:49:46;;;;;;;12.77;3.10;;;10.10;99.90;;;;;;4977008;28;20037;-83
2023/12/28 07:52:12;;;;;;;12.32;3.25;;;10.10;99.90;;;;;;4968136;28;20038;-83
2023/12/28 07:54:37;;;;;;;11.88;2.90;;;10.10;99.90;;;;;;4973089;28;20052;-83
2023/12/28 07:57:04;;;;;;;11.02;2.53;;;10.00;99.90;;;;;;4982320;28;20100;-83
2023/12/28 07:59:29;;;;;;;14.43;2.90;;;10.10;99.90;;;;;;4979419;28;20232;-84
2023/12/28 08:01:56;;;;;;;10.75;2.95;;;10.10;99.90;;;;;;4986536;28;20041;-83
2023/12/28 08:04:21;;;;;;;15.18;3.33;;;10.10;99.90;;;;;;5000708;28;20037;-83
2023/12/28 08:06:47;;;;;;;12.10;2.97;;;10.20;99.90;;;;;;4987961;28;20590;-83
2023/12/28 08:09:13;;;;;;;10.32;2.88;;;10.20;99.90;;;;;;5002441;28;20041;-83
2023/12/28 08:11:38;;;;;;;13.43;3.40;;;10.20;99.90;;;;;;4999308;28;20069;-83
2023/12/28 08:14:05;;;;;;;11.57;2.75;;;10.20;99.90;;;;;;4984957;28;20503;-83
2023/12/28 08:16:31;;;;;;;15.98;4.00;;;10.30;99.90;;;;;;4985924;28;20066;-85
2023/12/28 08:18:56;;;;;;;13.80;3.30;;;10.30;99.90;;;;;;4978665;28;20072;-83
2023/12/28 08:21:22;;;;;;;11.00;3.28;;;10.20;99.90;;;;;;4984749;28;20038;-84
2023/12/28 08:23:48;;;;;;;13.30;3.30;;;10.30;99.90;;;;;;4970684;28;20125;-84
2023/12/28 08:26:13;;;;;;;13.07;3.28;;;10.30;99.90;;;;;;4986215;28;20502;-83
2023/12/28 08:28:40;;;;;;;15.52;3.05;;;10.30;99.90;;;;;;4983802;28;20506;-83
2023/12/28 08:31:07;;;;;;;11.18;2.88;;;10.30;99.90;;;;;;5002662;28;20038;-83
2023/12/28 08:33:33;;;;;;;15.13;3.25;;;10.40;99.90;;;;;;4969663;28;20498;-83
2023/12/28 08:35:59;;;;;;;14.57;3.00;;;10.30;99.90;;;;;;4987671;28;20075;-82
2023/12/28 08:38:25;;;;;;;13.25;3.38;;;10.30;99.90;;;;;;4991587;28;20126;-82
2023/12/28 08:40:51;;;;;;;13.13;3.53;;;10.40;99.90;;;;;;4999339;28;20124;-82
2023/12/28 08:43:16;;;;;;;13.95;3.50;;;10.40;99.90;;;;;;5013196;28;20038;-83
2023/12/28 08:45:42;;;;;;;15.68;3.28;;;10.40;99.90;;;;;;4990299;28;20430;-83
2023/12/28 08:48:08;;;;;;;14.10;3.22;;;10.40;99.90;;;;;;4978406;28;20057;-83
2023/12/28 08:50:34;;;;;;;11.65;2.90;;;10.40;99.90;;;;;;5000856;28;20042;-83
2023/12/28 08:52:59;;;;;;;16.63;3.30;;;10.40;99.90;;;;;;4985848;28;20042;-83
2023/12/28 08:55:25;;;;;;;14.85;3.42;;;10.40;99.90;;;;;;4987399;28;20510;-83
2023/12/28 08:57:50;;;;;;;14.27;4.13;;;10.40;99.90;;;;;;4972882;28;20105;-83
2023/12/28 09:00:16;;;;;;;17.83;4.10;;;10.40;99.90;;;;;;5007330;28;20044;-84
2023/12/28 09:02:42;;;;;;;17.38;3.60;;;10.50;99.90;;;;;;4988588;28;20129;-83
2023/12/28 09:05:09;;;;;;;13.35;3.22;;;10.40;99.90;;;;;;4986665;28;20076;-83
2023/12/28 09:07:38;;;;;;;17.33;3.13;;;10.40;99.90;;;;;;4977133;28;20046;-83
2023/12/28 09:10:04;;;;;;;17.95;4.03;;;10.40;99.90;;;;;;4971408;28;20400;-82
2023/12/28 09:12:30;;;;;;;14.63;3.75;;;10.40;99.90;;;;;;5002057;28;20061;-83
2023/12/28 09:14:56;;;;;;;15.38;3.33;;;10.40;99.90;;;;;;5002972;28;20045;-83
2023/12/28 09:17:22;;;;;;;12.18;3.08;;;10.40;99.90;;;;;;4964217;28;20030;-84
2023/12/28 09:19:48;;;;;;;16.17;3.55;;;10.40;99.90;;;;;;4983567;28;20038;-82
2023/12/28 09:22:13;;;;;;;13.70;3.67;;;10.40;99.90;;;;;;4987402;28;21107;-83
2023/12/28 09:24:39;;;;;;;16.50;4.13;;;10.50;99.90;;;;;;4983440;28;20034;-84
2023/12/28 09:27:05;;;;;;;17.02;3.90;;;10.50;99.90;;;;;;4986146;28;20542;-84
2023/12/28 09:29:31;;;;;;;11.57;3.10;;;10.50;99.90;;;;;;4979048;28;20118;-83
2023/12/28 09:31:57;;;;;;;13.10;3.63;;;10.40;99.90;;;;;;4986993;28;20431;-84
2023/12/28 09:34:22;;;;;;;14.20;4.00;;;10.50;99.90;;;;;;4984380;28;20041;-82
2023/12/28 09:36:48;;;;;;;16.20;3.42;;;10.50;99.90;;;;;;4967924;28;20116;-83
2023/12/28 09:39:14;;;;;;;16.88;3.45;;;10.50;99.90;;;;;;4969431;28;20034;-83
2023/12/28 09:41:43;;;;;;;17.98;3.83;;;10.50;99.90;;;;;;4974099;28;20118;-83
2023/12/28 09:44:13;;;;;;;13.27;4.10;;;10.50;99.90;;;;;;4990475;28;20034;-83
2023/12/28 09:46:42;;;;;;;15.63;3.55;;;10.60;99.90;;;;;;4989270;28;20038;-83
2023/12/28 09:49:10;;;;;;;14.50;3.53;;;10.60;99.90;;;;;;4988198;28;20491;-84
2023/12/28 09:51:35;;;;;;;15.82;3.60;;;10.60;99.90;;;;;;4984109;28;20038;-84
2023/12/28 09:54:03;;;;;;;12.05;3.45;;;10.60;99.90;;;;;;5005790;28;20034;-83
2023/12/28 09:56:30;;;;;;;13.18;3.40;;;10.50;99.90;;;;;;4988963;28;20054;-83
2023/12/28 09:58:57;;;;;;;12.23;2.90;;;10.50;99.90;;;;;;4986776;28;20132;-83
2023/12/28 10:01:23;;;;;;;18.48;3.75;;;10.50;99.90;;;;;;5020306;28;20034;-82
2023/12/28 10:03:48;;;;;;;17.45;3.92;;;10.50;99.90;;;;;;4989203;28;20041;-83
2023/12/28 10:06:16;;;;;;;14.65;4.68;;;10.50;99.90;;;;;;4973368;28;20093;-83
2023/12/28 10:08:48;;;;;;;13.00;3.63;;;10.40;99.90;;;;;;4987092;28;20076;-83
2023/12/28 10:11:18;;;;;;;17.70;3.90;;;10.50;99.90;;;;;;4972481;28;20042;-83
2023/12/28 10:13:44;;;;;;;14.38;4.20;;;10.50;99.90;;;;;;4982322;28;20057;-84
2023/12/28 10:16:12;;;;;;;19.13;3.70;;;10.50;99.90;;;;;;4987910;28;20034;-83
2023/12/28 10:18:44;;;;;;;15.98;4.22;;;10.40;99.90;;;;;;4996880;28;20066;-83
2023/12/28 10:21:11;;;;;;;18.75;3.80;;;10.50;99.90;;;;;;4973891;28;20124;-83
2023/12/28 10:23:38;;;;;;;16.85;3.75;;;10.50;99.90;;;;;;5002689;28;20037;-83
2023/12/28 10:26:08;;;;;;;16.58;4.07;;;10.50;99.90;;;;;;4992129;28;20124;-83
2023/12/28 10:28:40;;;;;;;13.60;4.35;;;10.60;99.90;;;;;;5019341;28;20052;-83
2023/12/28 10:31:07;;;;;;;15.50;3.38;;;10.60;99.90;;;;;;4993900;28;20046;-83
2023/12/28 10:33:39;;;;;;;14.82;3.78;;;10.60;99.90;;;;;;4993485;28;20042;-83
2023/12/28 10:36:07;;;;;;;11.33;2.87;;;10.60;99.90;;;;;;4991664;28;20046;-83
2023/12/28 10:38:36;;;;;;;17.42;3.67;;;10.60;99.90;;;;;;5008129;28;20312;-83
2023/12/28 10:41:07;;;;;;;14.13;3.25;;;10.60;99.90;;;;;;4993372;28;20096;-83
2023/12/28 10:43:59;;;;;;;14.38;3.47;;;10.60;99.90;;;;;;4974103;28;20038;-83
2023/12/28 10:46:30;;;;;;;14.95;3.00;;;10.70;99.90;;;;;;4983064;28;20088;-83
2023/12/28 10:49:16;;;;;;;14.85;3.38;;;10.60;99.90;;;;;;4992086;28;20061;-83
2023/12/28 10:51:45;;;;;;;13.45;3.05;;;10.70;99.90;;;;;;4993472;28;21387;-83
2023/12/28 10:54:27;;;;;;;18.02;3.20;;;10.70;99.90;;;;;;5009115;28;20061;-83
2023/12/28 10:57:04;;;;;;;16.30;4.20;;;10.70;99.90;;;;;;4992076;28;20077;-83
2023/12/28 10:59:56;;;;;;;14.57;3.25;;;10.70;99.90;;;;;;4987977;28;20172;-83
2023/12/28 11:02:27;;;;;;;15.50;3.40;;;10.70;99.90;;;;;;4988629;28;20037;-83
2023/12/28 11:04:55;;;;;;;16.17;3.78;;;10.70;99.90;;;;;;4991373;28;20453;-83
2023/12/28 11:07:21;;;;;;;15.70;3.63;;;10.70;99.90;;;;;;5005281;28;20081;-83
2023/12/28 11:09:48;;;;;;;14.70;3.38;;;10.70;99.90;;;;;;4986983;28;20045;-83
2023/12/28 11:12:18;;;;;;;14.40;3.63;;;10.70;99.90;;;;;;4968431;28;20068;-83
2023/12/28 11:14:45;;;;;;;15.07;3.40;;;10.70;99.90;;;;;;4965398;28;20594;-83
2023/12/28 11:17:11;;;;;;;17.92;3.47;;;10.70;99.90;;;;;;4998683;28;20380;-83
2023/12/28 11:19:38;;;;;;;15.73;3.33;;;10.60;99.90;;;;;;4988267;28;20042;-83
2023/12/28 11:22:05;;;;;;;12.90;3.55;;;10.70;99.90;;;;;;4987097;28;20038;-83
2023/12/28 11:24:32;;;;;;;13.98;3.38;;;10.70;99.90;;;;;;5002430;28;20042;-84
2023/12/28 11:26:57;;;;;;;14.07;3.58;;;10.70;99.90;;;;;;5001883;28;20125;-84
2023/12/28 11:29:24;;;;;;;14.80;3.40;;;10.70;99.90;;;;;;4991932;28;20133;-83
2023/12/28 11:31:54;;;;;;;12.25;3.33;;;10.70;99.90;;;;;;4983696;28;20107;-83
2023/12/28 11:34:28;;;;;;;14.02;3.20;;;11.80;99.90;;;;;;5000455;28;20037;-84
2023/12/28 11:36:56;;;;;;;13.80;3.30;;;10.70;99.90;;;;;;5019288;28;20532;-83
2023/12/28 11:39:33;;;;;;;14.43;3.70;;;10.70;99.90;;;;;;4983728;28;20034;-83
2023/12/28 11:42:03;;;;;;;16.17;4.15;;;10.70;99.90;;;;;;5003015;28;20061;-83
2023/12/28 11:44:30;;;;;;;14.77;3.65;;;10.70;99.90;;;;;;4985749;28;20053;-83
2023/12/28 11:46:56;;;;;;;16.00;3.55;;;10.70;99.90;;;;;;4988893;28;21722;-83
2023/12/28 11:49:28;;;;;;;12.70;3.08;;;10.70;99.90;;;;;;4986441;28;20060;-83
2023/12/28 11:51:58;;;;;;;14.63;3.50;;;10.60;99.90;;;;;;4996920;28;20518;-83
2023/12/28 11:54:27;;;;;;;13.65;3.20;;;10.60;99.90;;;;;;4984253;28;20064;-83
2023/12/28 11:56:52;;;;;;;15.55;3.95;;;10.60;99.90;;;;;;4984369;28;20154;-83
2023/12/28 11:59:21;;;;;;;12.80;3.30;;;10.50;99.90;;;;;;5000597;28;20118;-83
2023/12/28 12:01:51;;;;;;;19.38;3.55;;;10.40;99.90;;;;;;4970065;28;20537;-84
2023/12/28 12:04:21;;;;;;;15.90;3.55;;;10.40;99.90;;;;;;4966168;28;20038;-83
2023/12/28 12:06:47;;;;;;;12.60;3.30;;;10.40;99.90;;;;;;4986663;28;20167;-83
2023/12/28 12:09:18;;;;;;;14.20;3.25;;;10.50;99.90;;;;;;4998169;28;20049;-83
2023/12/28 12:11:43;;;;;;;18.85;4.63;;;10.50;99.90;;;;;;5006850;28;20046;-83
2023/12/28 12:14:12;;;;;;;15.77;3.72;;;10.50;99.90;;;;;;4970579;28;20056;-83
2023/12/28 12:16:38;;;;;;;15.48;4.18;;;10.40;99.90;;;;;;4979409;28;20384;-83
2023/12/28 12:19:06;;;;;;;17.40;4.45;;;10.40;99.90;;;;;;5008361;28;20041;-83
2023/12/28 12:21:36;;;;;;;17.02;4.22;;;10.40;99.90;;;;;;4991814;28;20038;-83
2023/12/28 12:24:01;;;;;;;18.67;3.75;;;10.40;99.90;;;;;;4975127;28;20037;-83
2023/12/28 12:26:30;;;;;;;15.57;3.22;;;10.40;99.90;;;;;;4970954;28;20034;-83
2023/12/28 12:28:56;;;;;;;18.20;3.22;;;10.40;99.90;;;;;;4998471;28;20517;-83
2023/12/28 12:31:22;;;;;;;17.98;4.95;;;10.40;99.90;;;;;;4991746;28;20050;-83
2023/12/28 12:33:48;;;;;;;17.92;3.80;;;10.40;99.90;;;;;;4991907;28;20100;-83
2023/12/28 12:36:13;;;;;;;14.82;3.10;;;10.30;99.90;;;;;;4973142;28;20038;-84
2023/12/28 12:38:40;;;;;;;15.38;3.90;;;10.40;99.90;;;;;;4990527;28;20048;-83
2023/12/28 12:41:07;;;;;;;14.82;4.15;;;10.40;99.90;;;;;;4960142;28;20082;-83
2023/12/28 12:43:33;;;;;;;15.65;3.72;;;10.40;99.90;;;;;;4976239;28;20056;-83